sensor_id;sensor_type;location;lat;lon;timestamp;temperature;humidity
52743;DHT22;55583;53.012;6.556;2022-12-07T00:01:14;2.60;99.90
52743;DHT22;55583;53.012;6.556;2022-12-07T00:03:41;2.60;99.90
52743;DHT22;55583;53.012;6.556;2022-12-07T00:06:09;2.70;99.90
52743;DHT22;55583;53.012;6.556;2022-12-07T00:08:35;2.90;99.90
52743;DHT22;55583;53.012;6.556;2022-12-07T00:11:21;2.80;99.90
52743;DHT22;55583;53.012;6.556;2022-12-07T00:13:55;2.80;99.90
52743;DHT22;55583;53.012;6.556;2022-12-07T00:16:22;2.90;99.90
52743;DHT22;55583;53.012;6.556;2022-12-07T00:18:48;2.90;99.90
52743;DHT22;55583;53.012;6.556;2022-12-07T00:23:43;2.80;99.90
52743;DHT22;55583;53.012;6.556;2022-12-07T00:26:22;2.80;99.90
52743;DHT22;55583;53.012;6.556;2022-12-07T00:28:51;2.90;99.90
52743;DHT22;55583;53.012;6.556;2022-12-07T00:31:19;2.90;99.90
52743;DHT22;55583;53.012;6.556;2022-12-07T00:33:45;2.90;99.90
52743;DHT22;55583;53.012;6.556;2022-12-07T00:36:15;3.00;99.90
52743;DHT22;55583;53.012;6.556;2022-12-07T00:38:41;3.00;99.90
52743;DHT22;55583;53.012;6.556;2022-12-07T00:41:16;3.00;99.90
52743;DHT22;55583;53.012;6.556;2022-12-07T00:43:46;2.90;99.90
52743;DHT22;55583;53.012;6.556;2022-12-07T00:46:12;2.90;99.90
52743;DHT22;55583;53.012;6.556;2022-12-07T00:48:38;2.90;99.90
52743;DHT22;55583;53.012;6.556;2022-12-07T00:51:04;2.80;99.90
52743;DHT22;55583;53.012;6.556;2022-12-07T00:53:31;2.70;99.90
52743;DHT22;55583;53.012;6.556;2022-12-07T00:56:07;2.70;99.90
52743;DHT22;55583;53.012;6.556;2022-12-07T00:58:33;2.60;99.90
52743;DHT22;55583;53.012;6.556;2022-12-07T01:01:04;2.60;99.90
52743;DHT22;55583;53.012;6.556;2022-12-07T01:03:30;2.60;99.90
52743;DHT22;55583;53.012;6.556;2022-12-07T01:05:56;2.60;99.90
52743;DHT22;55583;53.012;6.556;2022-12-07T01:08:23;2.60;99.90
52743;DHT22;55583;53.012;6.556;2022-12-07T01:10:57;2.50;99.90
52743;DHT22;55583;53.012;6.556;2022-12-07T01:13:22;2.50;99.90
52743;DHT22;55583;53.012;6.556;2022-12-07T01:15:48;2.40;99.90
52743;DHT22;55583;53.012;6.556;2022-12-07T01:18:14;2.40;99.90
52743;DHT22;55583;53.012;6.556;2022-12-07T01:20:39;2.40;99.90
52743;DHT22;55583;53.012;6.556;2022-12-07T01:23:05;2.40;99.90
52743;DHT22;55583;53.012;6.556;2022-12-07T01:25:31;2.40;99.90
52743;DHT22;55583;53.012;6.556;2022-12-07T01:27:57;2.50;99.90
52743;DHT22;55583;53.012;6.556;2022-12-07T01:30:23;2.60;99.90
52743;DHT22;55583;53.012;6.556;2022-12-07T01:32:48;2.70;99.90
52743;DHT22;55583;53.012;6.556;2022-12-07T01:35:14;2.80;99.90
52743;DHT22;55583;53.012;6.556;2022-12-07T01:37:39;3.10;99.90
52743;DHT22;55583;53.012;6.556;2022-12-07T01:40:07;3.10;99.90
52743;DHT22;55583;53.012;6.556;2022-12-07T01:42:34;3.10;99.90
52743;DHT22;55583;53.012;6.556;2022-12-07T01:47:55;3.80;99.90
52743;DHT22;55583;53.012;6.556;2022-12-07T01:50:25;3.10;99.90
52743;DHT22;55583;53.012;6.556;2022-12-07T01:52:53;3.20;99.90
52743;DHT22;55583;53.012;6.556;2022-12-07T01:55:19;3.30;99.90
52743;DHT22;55583;53.012;6.556;2022-12-07T01:57:48;3.40;99.90
52743;DHT22;55583;53.012;6.556;2022-12-07T02:00:15;3.50;99.90
52743;DHT22;55583;53.012;6.556;2022-12-07T02:03:02;3.50;99.90
52743;DHT22;55583;53.012;6.556;2022-12-07T02:05:29;3.50;99.90
52743;DHT22;55583;53.012;6.556;2022-12-07T02:07:56;5.10;99.90
52743;DHT22;55583;53.012;6.556;2022-12-07T02:10:25;3.50;99.90
52743;DHT22;55583;53.012;6.556;2022-12-07T02:13:04;3.40;99.90
52743;DHT22;55583;53.012;6.556;2022-12-07T02:18:33;3.30;99.90
52743;DHT22;55583;53.012;6.556;2022-12-07T02:29:40;3.10;99.90
52743;DHT22;55583;53.012;6.556;2022-12-07T02:32:20;3.10;99.90
52743;DHT22;55583;53.012;6.556;2022-12-07T02:40:39;3.10;99.90
52743;DHT22;55583;53.012;6.556;2022-12-07T02:43:28;3.10;99.90
52743;DHT22;55583;53.012;6.556;2022-12-07T02:46:01;3.10;99.90
52743;DHT22;55583;53.012;6.556;2022-12-07T02:48:47;3.40;99.90
52743;DHT22;55583;53.012;6.556;2022-12-07T02:51:13;3.10;99.90
52743;DHT22;55583;53.012;6.556;2022-12-07T02:53:40;3.10;99.90
52743;DHT22;55583;53.012;6.556;2022-12-07T03:15:46;3.30;99.90
52743;DHT22;55583;53.012;6.556;2022-12-07T03:18:20;3.20;99.90
52743;DHT22;55583;53.012;6.556;2022-12-07T03:20:48;3.40;99.90
52743;DHT22;55583;53.012;6.556;2022-12-07T03:23:18;3.20;99.90
52743;DHT22;55583;53.012;6.556;2022-12-07T03:25:48;3.90;99.90
52743;DHT22;55583;53.012;6.556;2022-12-07T03:28:17;3.10;99.90
52743;DHT22;55583;53.012;6.556;2022-12-07T03:31:02;3.10;99.90
52743;DHT22;55583;53.012;6.556;2022-12-07T03:33:32;3.10;99.90
52743;DHT22;55583;53.012;6.556;2022-12-07T03:36:06;3.20;99.90
52743;DHT22;55583;53.012;6.556;2022-12-07T03:38:41;3.20;99.90
52743;DHT22;55583;53.012;6.556;2022-12-07T03:43:40;3.10;99.90
52743;DHT22;55583;53.012;6.556;2022-12-07T03:52:03;3.10;99.90
52743;DHT22;55583;53.012;6.556;2022-12-07T03:54:37;3.10;99.90
52743;DHT22;55583;53.012;6.556;2022-12-07T03:57:06;3.20;99.90
52743;DHT22;55583;53.012;6.556;2022-12-07T03:59:32;3.20;99.90
52743;DHT22;55583;53.012;6.556;2022-12-07T04:02:03;3.10;99.90
52743;DHT22;55583;53.012;6.556;2022-12-07T04:04:29;3.20;99.90
52743;DHT22;55583;53.012;6.556;2022-12-07T04:06:55;3.10;99.90
52743;DHT22;55583;53.012;6.556;2022-12-07T04:09:21;3.10;99.90
52743;DHT22;55583;53.012;6.556;2022-12-07T04:11:47;3.00;99.90
52743;DHT22;55583;53.012;6.556;2022-12-07T04:14:13;2.90;99.90
52743;DHT22;55583;53.012;6.556;2022-12-07T04:16:55;2.80;99.90
52743;DHT22;55583;53.012;6.556;2022-12-07T04:19:26;4.20;99.90
52743;DHT22;55583;53.012;6.556;2022-12-07T04:21:52;2.80;99.90
52743;DHT22;55583;53.012;6.556;2022-12-07T04:24:18;2.80;99.90
52743;DHT22;55583;53.012;6.556;2022-12-07T04:26:46;2.80;99.90
52743;DHT22;55583;53.012;6.556;2022-12-07T04:29:12;2.80;99.90
52743;DHT22;55583;53.012;6.556;2022-12-07T04:31:38;2.80;99.90
52743;DHT22;55583;53.012;6.556;2022-12-07T04:34:04;2.90;99.90
52743;DHT22;55583;53.012;6.556;2022-12-07T04:36:31;3.00;99.90
52743;DHT22;55583;53.012;6.556;2022-12-07T04:38:57;3.00;99.90
52743;DHT22;55583;53.012;6.556;2022-12-07T04:41:23;3.10;99.90
52743;DHT22;55583;53.012;6.556;2022-12-07T04:43:54;3.10;99.90
52743;DHT22;55583;53.012;6.556;2022-12-07T04:46:20;3.20;99.90
52743;DHT22;55583;53.012;6.556;2022-12-07T04:48:46;3.20;99.90
52743;DHT22;55583;53.012;6.556;2022-12-07T04:51:18;3.20;99.90
52743;DHT22;55583;53.012;6.556;2022-12-07T04:53:44;3.30;99.90
52743;DHT22;55583;53.012;6.556;2022-12-07T04:56:09;3.30;99.90
52743;DHT22;55583;53.012;6.556;2022-12-07T04:58:35;3.30;99.90
52743;DHT22;55583;53.012;6.556;2022-12-07T05:01:01;3.40;99.90
52743;DHT22;55583;53.012;6.556;2022-12-07T05:03:26;3.40;99.90
52743;DHT22;55583;53.012;6.556;2022-12-07T05:05:52;3.40;99.90
52743;DHT22;55583;53.012;6.556;2022-12-07T05:08:17;3.40;99.90
52743;DHT22;55583;53.012;6.556;2022-12-07T05:10:43;3.40;99.90
52743;DHT22;55583;53.012;6.556;2022-12-07T05:13:09;3.40;99.90
52743;DHT22;55583;53.012;6.556;2022-12-07T05:15:34;3.40;99.90
52743;DHT22;55583;53.012;6.556;2022-12-07T05:18:00;3.40;99.90
52743;DHT22;55583;53.012;6.556;2022-12-07T05:20:25;3.30;99.90
52743;DHT22;55583;53.012;6.556;2022-12-07T05:22:51;3.30;99.90
52743;DHT22;55583;53.012;6.556;2022-12-07T05:25:17;3.40;99.90
52743;DHT22;55583;53.012;6.556;2022-12-07T05:27:42;3.10;99.90
52743;DHT22;55583;53.012;6.556;2022-12-07T05:30:08;3.00;99.90
52743;DHT22;55583;53.012;6.556;2022-12-07T05:32:34;2.90;99.90
52743;DHT22;55583;53.012;6.556;2022-12-07T05:34:59;2.90;99.90
52743;DHT22;55583;53.012;6.556;2022-12-07T05:37:25;2.80;99.90
52743;DHT22;55583;53.012;6.556;2022-12-07T05:39:50;2.70;99.90
52743;DHT22;55583;53.012;6.556;2022-12-07T05:42:16;2.70;99.90
52743;DHT22;55583;53.012;6.556;2022-12-07T05:44:46;2.60;99.90
52743;DHT22;55583;53.012;6.556;2022-12-07T05:47:13;2.50;99.90
52743;DHT22;55583;53.012;6.556;2022-12-07T05:49:39;2.80;99.90
52743;DHT22;55583;53.012;6.556;2022-12-07T05:52:05;2.40;99.90
52743;DHT22;55583;53.012;6.556;2022-12-07T05:54:31;2.30;99.90
52743;DHT22;55583;53.012;6.556;2022-12-07T05:56:56;2.30;99.90
52743;DHT22;55583;53.012;6.556;2022-12-07T05:59:22;2.20;99.90
52743;DHT22;55583;53.012;6.556;2022-12-07T06:02:06;2.30;99.90
52743;DHT22;55583;53.012;6.556;2022-12-07T06:04:36;2.30;99.90
52743;DHT22;55583;53.012;6.556;2022-12-07T06:07:03;2.30;99.90
52743;DHT22;55583;53.012;6.556;2022-12-07T06:09:29;2.30;99.90
52743;DHT22;55583;53.012;6.556;2022-12-07T06:11:56;2.30;99.90
52743;DHT22;55583;53.012;6.556;2022-12-07T06:14:41;2.30;99.90
52743;DHT22;55583;53.012;6.556;2022-12-07T06:17:07;2.20;99.90
52743;DHT22;55583;53.012;6.556;2022-12-07T06:19:33;2.20;99.90
52743;DHT22;55583;53.012;6.556;2022-12-07T06:21:59;2.10;99.90
52743;DHT22;55583;53.012;6.556;2022-12-07T06:24:24;3.00;99.90
52743;DHT22;55583;53.012;6.556;2022-12-07T06:26:50;2.20;99.90
52743;DHT22;55583;53.012;6.556;2022-12-07T06:29:17;3.10;99.90
52743;DHT22;55583;53.012;6.556;2022-12-07T06:31:43;2.30;99.90
52743;DHT22;55583;53.012;6.556;2022-12-07T06:34:14;2.30;99.90
52743;DHT22;55583;53.012;6.556;2022-12-07T06:36:40;2.30;99.90
52743;DHT22;55583;53.012;6.556;2022-12-07T06:39:07;2.30;99.90
52743;DHT22;55583;53.012;6.556;2022-12-07T06:41:38;2.30;99.90
52743;DHT22;55583;53.012;6.556;2022-12-07T06:44:04;2.40;99.90
52743;DHT22;55583;53.012;6.556;2022-12-07T06:46:30;2.40;99.90
52743;DHT22;55583;53.012;6.556;2022-12-07T06:48:56;2.50;99.90
52743;DHT22;55583;53.012;6.556;2022-12-07T06:51:22;2.60;99.90
52743;DHT22;55583;53.012;6.556;2022-12-07T06:53:48;2.70;99.90
52743;DHT22;55583;53.012;6.556;2022-12-07T06:56:14;2.70;99.90
52743;DHT22;55583;53.012;6.556;2022-12-07T06:58:40;2.70;99.90
52743;DHT22;55583;53.012;6.556;2022-12-07T07:01:13;2.80;99.90
52743;DHT22;55583;53.012;6.556;2022-12-07T07:03:40;2.70;99.90
52743;DHT22;55583;53.012;6.556;2022-12-07T07:06:06;2.70;99.90
52743;DHT22;55583;53.012;6.556;2022-12-07T07:08:33;2.70;99.90
52743;DHT22;55583;53.012;6.556;2022-12-07T07:10:59;2.70;99.90
52743;DHT22;55583;53.012;6.556;2022-12-07T07:13:26;2.60;99.90
52743;DHT22;55583;53.012;6.556;2022-12-07T07:15:52;2.50;99.90
52743;DHT22;55583;53.012;6.556;2022-12-07T07:18:18;2.40;99.90
52743;DHT22;55583;53.012;6.556;2022-12-07T07:20:44;2.50;99.90
52743;DHT22;55583;53.012;6.556;2022-12-07T07:23:09;2.30;99.90
52743;DHT22;55583;53.012;6.556;2022-12-07T07:25:35;2.30;99.90
52743;DHT22;55583;53.012;6.556;2022-12-07T07:28:01;2.30;99.90
52743;DHT22;55583;53.012;6.556;2022-12-07T07:30:27;2.30;99.90
52743;DHT22;55583;53.012;6.556;2022-12-07T07:33:00;2.40;99.90
52743;DHT22;55583;53.012;6.556;2022-12-07T07:35:27;2.40;99.90
52743;DHT22;55583;53.012;6.556;2022-12-07T07:37:53;2.40;99.90
52743;DHT22;55583;53.012;6.556;2022-12-07T07:40:19;2.60;99.90
52743;DHT22;55583;53.012;6.556;2022-12-07T07:42:47;2.50;99.90
52743;DHT22;55583;53.012;6.556;2022-12-07T07:45:13;2.50;99.90
52743;DHT22;55583;53.012;6.556;2022-12-07T07:47:39;2.50;99.90
52743;DHT22;55583;53.012;6.556;2022-12-07T07:50:05;2.50;99.90
52743;DHT22;55583;53.012;6.556;2022-12-07T07:52:31;2.50;99.90
52743;DHT22;55583;53.012;6.556;2022-12-07T07:54:57;2.40;99.90
52743;DHT22;55583;53.012;6.556;2022-12-07T07:57:22;2.30;99.90
52743;DHT22;55583;53.012;6.556;2022-12-07T07:59:48;2.20;99.90
52743;DHT22;55583;53.012;6.556;2022-12-07T08:02:15;2.20;99.90
52743;DHT22;55583;53.012;6.556;2022-12-07T08:04:41;2.10;99.90
52743;DHT22;55583;53.012;6.556;2022-12-07T08:07:07;2.10;99.90
52743;DHT22;55583;53.012;6.556;2022-12-07T08:09:32;2.10;99.90
52743;DHT22;55583;53.012;6.556;2022-12-07T08:11:58;2.00;99.90
52743;DHT22;55583;53.012;6.556;2022-12-07T08:14:27;2.00;99.90
52743;DHT22;55583;53.012;6.556;2022-12-07T08:16:54;2.00;99.90
52743;DHT22;55583;53.012;6.556;2022-12-07T08:19:20;2.00;99.90
52743;DHT22;55583;53.012;6.556;2022-12-07T08:21:45;2.00;99.90
52743;DHT22;55583;53.012;6.556;2022-12-07T08:24:11;2.00;99.90
52743;DHT22;55583;53.012;6.556;2022-12-07T08:26:37;2.10;99.90
52743;DHT22;55583;53.012;6.556;2022-12-07T08:29:03;2.20;99.90
52743;DHT22;55583;53.012;6.556;2022-12-07T08:31:29;2.30;99.90
52743;DHT22;55583;53.012;6.556;2022-12-07T08:33:54;2.60;99.90
52743;DHT22;55583;53.012;6.556;2022-12-07T08:36:20;2.90;99.90
52743;DHT22;55583;53.012;6.556;2022-12-07T08:38:48;3.10;99.90
52743;DHT22;55583;53.012;6.556;2022-12-07T08:41:14;3.20;99.90
52743;DHT22;55583;53.012;6.556;2022-12-07T08:43:40;3.20;99.90
52743;DHT22;55583;53.012;6.556;2022-12-07T08:48:39;3.20;99.90
52743;DHT22;55583;53.012;6.556;2022-12-07T08:51:06;3.20;99.90
52743;DHT22;55583;53.012;6.556;2022-12-07T08:53:33;3.10;99.90
52743;DHT22;55583;53.012;6.556;2022-12-07T08:56:00;3.00;99.90
52743;DHT22;55583;53.012;6.556;2022-12-07T08:58:26;4.00;99.90
52743;DHT22;55583;53.012;6.556;2022-12-07T09:00:52;2.80;99.90
52743;DHT22;55583;53.012;6.556;2022-12-07T09:03:17;2.80;99.90
52743;DHT22;55583;53.012;6.556;2022-12-07T09:05:44;2.80;99.90
52743;DHT22;55583;53.012;6.556;2022-12-07T09:08:09;2.80;99.90
52743;DHT22;55583;53.012;6.556;2022-12-07T09:10:35;2.80;99.90
52743;DHT22;55583;53.012;6.556;2022-12-07T09:13:00;2.90;99.90
52743;DHT22;55583;53.012;6.556;2022-12-07T09:15:28;3.00;99.90
52743;DHT22;55583;53.012;6.556;2022-12-07T09:17:53;3.10;99.90
52743;DHT22;55583;53.012;6.556;2022-12-07T09:20:22;3.10;99.90
52743;DHT22;55583;53.012;6.556;2022-12-07T09:22:48;3.20;99.90
52743;DHT22;55583;53.012;6.556;2022-12-07T09:25:13;3.20;99.90
52743;DHT22;55583;53.012;6.556;2022-12-07T09:27:39;3.20;99.90
52743;DHT22;55583;53.012;6.556;2022-12-07T09:30:05;3.40;99.90
52743;DHT22;55583;53.012;6.556;2022-12-07T09:32:31;3.50;99.90
52743;DHT22;55583;53.012;6.556;2022-12-07T09:34:57;3.60;99.90
52743;DHT22;55583;53.012;6.556;2022-12-07T09:37:23;3.70;99.90
52743;DHT22;55583;53.012;6.556;2022-12-07T09:39:48;3.90;99.90
52743;DHT22;55583;53.012;6.556;2022-12-07T09:44:57;4.00;99.90
52743;DHT22;55583;53.012;6.556;2022-12-07T09:47:24;4.00;99.90
52743;DHT22;55583;53.012;6.556;2022-12-07T09:49:49;4.80;99.90
52743;DHT22;55583;53.012;6.556;2022-12-07T09:52:24;4.00;99.90
52743;DHT22;55583;53.012;6.556;2022-12-07T09:54:51;4.00;99.90
52743;DHT22;55583;53.012;6.556;2022-12-07T09:57:18;4.60;99.90
52743;DHT22;55583;53.012;6.556;2022-12-07T09:59:45;4.00;99.90
52743;DHT22;55583;53.012;6.556;2022-12-07T10:02:25;4.30;99.90
52743;DHT22;55583;53.012;6.556;2022-12-07T10:04:53;4.00;99.90
52743;DHT22;55583;53.012;6.556;2022-12-07T10:07:19;4.00;99.90
52743;DHT22;55583;53.012;6.556;2022-12-07T10:09:44;4.10;99.90
52743;DHT22;55583;53.012;6.556;2022-12-07T10:12:12;4.10;99.90
52743;DHT22;55583;53.012;6.556;2022-12-07T10:14:52;4.20;99.90
52743;DHT22;55583;53.012;6.556;2022-12-07T10:17:38;4.30;99.90
52743;DHT22;55583;53.012;6.556;2022-12-07T10:22:37;4.50;99.90
52743;DHT22;55583;53.012;6.556;2022-12-07T10:25:18;4.50;99.90
52743;DHT22;55583;53.012;6.556;2022-12-07T10:28:13;4.60;99.90
52743;DHT22;55583;53.012;6.556;2022-12-07T10:30:49;4.70;99.90
52743;DHT22;55583;53.012;6.556;2022-12-07T10:33:54;4.90;99.90
52743;DHT22;55583;53.012;6.556;2022-12-07T10:38:50;5.10;99.90
52743;DHT22;55583;53.012;6.556;2022-12-07T10:41:16;5.90;99.90
52743;DHT22;55583;53.012;6.556;2022-12-07T10:43:51;4.30;99.90
52743;DHT22;55583;53.012;6.556;2022-12-07T10:49:29;6.40;99.90
52743;DHT22;55583;53.012;6.556;2022-12-07T10:57:53;5.30;99.90
52743;DHT22;55583;53.012;6.556;2022-12-07T11:00:26;5.40;99.90
52743;DHT22;55583;53.012;6.556;2022-12-07T11:03:05;5.60;99.90
52743;DHT22;55583;53.012;6.556;2022-12-07T11:08:57;6.50;99.90
52743;DHT22;55583;53.012;6.556;2022-12-07T11:11:38;6.60;99.90
52743;DHT22;55583;53.012;6.556;2022-12-07T11:17:15;6.80;99.90
52743;DHT22;55583;53.012;6.556;2022-12-07T11:20:02;6.60;99.90
52743;DHT22;55583;53.012;6.556;2022-12-07T11:27:55;7.70;99.90
52743;DHT22;55583;53.012;6.556;2022-12-07T11:30:32;6.40;99.90
52743;DHT22;55583;53.012;6.556;2022-12-07T11:35:40;6.60;99.90
52743;DHT22;55583;53.012;6.556;2022-12-07T11:38:18;6.70;99.90
52743;DHT22;55583;53.012;6.556;2022-12-07T11:40:48;7.80;99.90
52743;DHT22;55583;53.012;6.556;2022-12-07T11:43:32;7.80;99.90
52743;DHT22;55583;53.012;6.556;2022-12-07T11:46:12;7.30;99.90
52743;DHT22;55583;53.012;6.556;2022-12-07T11:49:03;7.40;99.90
52743;DHT22;55583;53.012;6.556;2022-12-07T11:51:37;7.40;99.90
52743;DHT22;55583;53.012;6.556;2022-12-07T11:54:14;7.60;99.90
52743;DHT22;55583;53.012;6.556;2022-12-07T11:56:42;7.30;99.90
52743;DHT22;55583;53.012;6.556;2022-12-07T11:59:29;8.40;99.90
52743;DHT22;55583;53.012;6.556;2022-12-07T12:02:13;7.20;99.90
52743;DHT22;55583;53.012;6.556;2022-12-07T12:04:47;7.20;99.90
52743;DHT22;55583;53.012;6.556;2022-12-07T12:07:19;7.30;99.90
52743;DHT22;55583;53.012;6.556;2022-12-07T12:09:53;7.00;99.90
52743;DHT22;55583;53.012;6.556;2022-12-07T12:18:14;6.00;99.90
52743;DHT22;55583;53.012;6.556;2022-12-07T12:20:52;6.90;99.90
52743;DHT22;55583;53.012;6.556;2022-12-07T12:23:39;6.90;99.90
52743;DHT22;55583;53.012;6.556;2022-12-07T12:26:35;7.00;99.90
52743;DHT22;55583;53.012;6.556;2022-12-07T12:29:04;6.90;99.90
52743;DHT22;55583;53.012;6.556;2022-12-07T12:31:40;6.90;99.90
52743;DHT22;55583;53.012;6.556;2022-12-07T12:34:34;7.90;99.90
52743;DHT22;55583;53.012;6.556;2022-12-07T12:42:50;6.70;99.90
52743;DHT22;55583;53.012;6.556;2022-12-07T12:45:35;6.60;99.90
52743;DHT22;55583;53.012;6.556;2022-12-07T12:50:32;6.50;99.90
52743;DHT22;55583;53.012;6.556;2022-12-07T12:53:22;7.30;99.90
52743;DHT22;55583;53.012;6.556;2022-12-07T12:58:22;6.20;99.90
52743;DHT22;55583;53.012;6.556;2022-12-07T13:03:57;6.10;99.90
52743;DHT22;55583;53.012;6.556;2022-12-07T13:08:57;6.00;99.90
52743;DHT22;55583;53.012;6.556;2022-12-07T13:11:36;5.80;99.90
52743;DHT22;55583;53.012;6.556;2022-12-07T13:17:00;5.50;99.90
52743;DHT22;55583;53.012;6.556;2022-12-07T13:28:02;4.90;99.90
52743;DHT22;55583;53.012;6.556;2022-12-07T13:30:32;4.90;99.90
52743;DHT22;55583;53.012;6.556;2022-12-07T13:33:05;4.90;99.90
52743;DHT22;55583;53.012;6.556;2022-12-07T13:35:34;4.90;99.90
52743;DHT22;55583;53.012;6.556;2022-12-07T13:38:29;5.40;99.90
52743;DHT22;55583;53.012;6.556;2022-12-07T13:43:43;4.90;99.90
52743;DHT22;55583;53.012;6.556;2022-12-07T13:46:11;4.80;99.90
52743;DHT22;55583;53.012;6.556;2022-12-07T13:48:48;4.80;99.90
52743;DHT22;55583;53.012;6.556;2022-12-07T13:51:22;4.80;99.90
52743;DHT22;55583;53.012;6.556;2022-12-07T13:54:07;4.80;99.90
52743;DHT22;55583;53.012;6.556;2022-12-07T13:56:35;4.80;99.90
52743;DHT22;55583;53.012;6.556;2022-12-07T13:59:17;4.80;99.90
52743;DHT22;55583;53.012;6.556;2022-12-07T14:01:45;4.80;99.90
52743;DHT22;55583;53.012;6.556;2022-12-07T14:04:36;4.70;99.90
52743;DHT22;55583;53.012;6.556;2022-12-07T14:07:26;4.60;99.90
52743;DHT22;55583;53.012;6.556;2022-12-07T14:10:03;4.60;99.90
52743;DHT22;55583;53.012;6.556;2022-12-07T14:12:30;4.50;99.90
52743;DHT22;55583;53.012;6.556;2022-12-07T14:14:58;4.50;99.90
52743;DHT22;55583;53.012;6.556;2022-12-07T14:17:26;5.30;99.90
52743;DHT22;55583;53.012;6.556;2022-12-07T14:19:54;4.50;99.90
52743;DHT22;55583;53.012;6.556;2022-12-07T14:22:37;4.50;99.90
52743;DHT22;55583;53.012;6.556;2022-12-07T14:25:21;5.60;99.90
52743;DHT22;55583;53.012;6.556;2022-12-07T14:27:56;4.50;99.90
52743;DHT22;55583;53.012;6.556;2022-12-07T14:30:29;4.50;99.90
52743;DHT22;55583;53.012;6.556;2022-12-07T14:32:58;4.40;99.90
52743;DHT22;55583;53.012;6.556;2022-12-07T14:35:25;5.10;99.90
52743;DHT22;55583;53.012;6.556;2022-12-07T14:37:52;4.30;99.90
52743;DHT22;55583;53.012;6.556;2022-12-07T14:40:20;4.20;99.90
52743;DHT22;55583;53.012;6.556;2022-12-07T14:42:48;4.30;99.90
52743;DHT22;55583;53.012;6.556;2022-12-07T14:45:18;4.30;99.90
52743;DHT22;55583;53.012;6.556;2022-12-07T14:47:45;4.30;99.90
52743;DHT22;55583;53.012;6.556;2022-12-07T14:50:13;5.20;99.90
52743;DHT22;55583;53.012;6.556;2022-12-07T14:52:40;4.40;99.90
52743;DHT22;55583;53.012;6.556;2022-12-07T14:55:16;4.30;99.90
52743;DHT22;55583;53.012;6.556;2022-12-07T14:57:44;4.30;99.90
52743;DHT22;55583;53.012;6.556;2022-12-07T15:00:13;4.40;99.90
52743;DHT22;55583;53.012;6.556;2022-12-07T15:02:39;4.40;99.90
52743;DHT22;55583;53.012;6.556;2022-12-07T15:05:05;4.40;99.90
52743;DHT22;55583;53.012;6.556;2022-12-07T15:07:31;4.40;99.90
52743;DHT22;55583;53.012;6.556;2022-12-07T15:09:56;4.40;99.90
52743;DHT22;55583;53.012;6.556;2022-12-07T15:12:22;4.40;99.90
52743;DHT22;55583;53.012;6.556;2022-12-07T15:14:50;4.40;99.90
52743;DHT22;55583;53.012;6.556;2022-12-07T15:17:21;4.40;99.90
52743;DHT22;55583;53.012;6.556;2022-12-07T15:19:46;4.40;99.90
52743;DHT22;55583;53.012;6.556;2022-12-07T15:22:12;4.40;99.90
52743;DHT22;55583;53.012;6.556;2022-12-07T15:24:38;4.40;99.90
52743;DHT22;55583;53.012;6.556;2022-12-07T15:27:04;4.30;99.90
52743;DHT22;55583;53.012;6.556;2022-12-07T15:29:29;4.30;99.90
52743;DHT22;55583;53.012;6.556;2022-12-07T15:31:55;4.20;99.90
52743;DHT22;55583;53.012;6.556;2022-12-07T15:34:21;4.10;99.90
52743;DHT22;55583;53.012;6.556;2022-12-07T15:36:46;4.10;99.90
52743;DHT22;55583;53.012;6.556;2022-12-07T15:39:12;4.00;99.90
52743;DHT22;55583;53.012;6.556;2022-12-07T15:41:38;4.00;99.90
52743;DHT22;55583;53.012;6.556;2022-12-07T15:44:04;3.90;99.90
52743;DHT22;55583;53.012;6.556;2022-12-07T15:46:48;3.80;99.90
52743;DHT22;55583;53.012;6.556;2022-12-07T15:49:16;3.70;99.90
52743;DHT22;55583;53.012;6.556;2022-12-07T15:51:43;3.60;99.90
52743;DHT22;55583;53.012;6.556;2022-12-07T15:56:43;3.60;99.90
52743;DHT22;55583;53.012;6.556;2022-12-07T15:59:09;3.50;99.90
52743;DHT22;55583;53.012;6.556;2022-12-07T16:01:34;3.50;99.90
52743;DHT22;55583;53.012;6.556;2022-12-07T16:04:00;3.50;99.90
52743;DHT22;55583;53.012;6.556;2022-12-07T16:06:26;3.40;99.90
52743;DHT22;55583;53.012;6.556;2022-12-07T16:08:52;3.40;99.90
52743;DHT22;55583;53.012;6.556;2022-12-07T16:11:18;3.40;99.90
52743;DHT22;55583;53.012;6.556;2022-12-07T16:13:43;3.40;99.90
52743;DHT22;55583;53.012;6.556;2022-12-07T16:16:12;3.40;99.90
52743;DHT22;55583;53.012;6.556;2022-12-07T16:18:39;3.50;99.90
52743;DHT22;55583;53.012;6.556;2022-12-07T16:21:05;3.40;99.90
52743;DHT22;55583;53.012;6.556;2022-12-07T16:23:31;3.50;99.90
52743;DHT22;55583;53.012;6.556;2022-12-07T16:26:08;4.00;99.90
52743;DHT22;55583;53.012;6.556;2022-12-07T16:28:35;4.30;99.90
52743;DHT22;55583;53.012;6.556;2022-12-07T16:31:07;3.50;99.90
52743;DHT22;55583;53.012;6.556;2022-12-07T16:33:35;3.60;99.90
52743;DHT22;55583;53.012;6.556;2022-12-07T16:36:02;3.60;99.90
52743;DHT22;55583;53.012;6.556;2022-12-07T16:38:28;3.60;99.90
52743;DHT22;55583;53.012;6.556;2022-12-07T16:40:54;3.60;99.90
52743;DHT22;55583;53.012;6.556;2022-12-07T16:43:20;3.60;99.90
52743;DHT22;55583;53.012;6.556;2022-12-07T16:45:46;3.60;99.90
52743;DHT22;55583;53.012;6.556;2022-12-07T16:48:13;3.60;99.90
52743;DHT22;55583;53.012;6.556;2022-12-07T16:50:40;3.60;99.90
52743;DHT22;55583;53.012;6.556;2022-12-07T16:53:10;4.30;99.90
52743;DHT22;55583;53.012;6.556;2022-12-07T16:55:40;3.60;99.90
52743;DHT22;55583;53.012;6.556;2022-12-07T16:58:07;3.60;99.90
52743;DHT22;55583;53.012;6.556;2022-12-07T17:00:33;4.60;99.90
52743;DHT22;55583;53.012;6.556;2022-12-07T17:02:59;3.60;99.90
52743;DHT22;55583;53.012;6.556;2022-12-07T17:05:25;4.60;99.90
52743;DHT22;55583;53.012;6.556;2022-12-07T17:07:53;4.10;99.90
52743;DHT22;55583;53.012;6.556;2022-12-07T17:10:19;3.60;99.90
52743;DHT22;55583;53.012;6.556;2022-12-07T17:12:45;4.00;99.90
52743;DHT22;55583;53.012;6.556;2022-12-07T17:15:10;3.60;99.90
52743;DHT22;55583;53.012;6.556;2022-12-07T17:17:46;3.60;99.90
52743;DHT22;55583;53.012;6.556;2022-12-07T17:20:12;3.60;99.90
52743;DHT22;55583;53.012;6.556;2022-12-07T17:22:38;3.60;99.90
52743;DHT22;55583;53.012;6.556;2022-12-07T17:25:04;3.60;99.90
52743;DHT22;55583;53.012;6.556;2022-12-07T17:27:31;3.60;99.90
52743;DHT22;55583;53.012;6.556;2022-12-07T17:29:56;3.60;99.90
52743;DHT22;55583;53.012;6.556;2022-12-07T17:32:22;3.50;99.90
52743;DHT22;55583;53.012;6.556;2022-12-07T17:34:48;3.50;99.90
52743;DHT22;55583;53.012;6.556;2022-12-07T17:37:13;3.50;99.90
52743;DHT22;55583;53.012;6.556;2022-12-07T17:39:39;3.50;99.90
52743;DHT22;55583;53.012;6.556;2022-12-07T17:42:05;3.50;99.90
52743;DHT22;55583;53.012;6.556;2022-12-07T17:44:48;3.50;99.90
52743;DHT22;55583;53.012;6.556;2022-12-07T17:47:14;3.50;99.90
52743;DHT22;55583;53.012;6.556;2022-12-07T17:49:42;3.50;99.90
52743;DHT22;55583;53.012;6.556;2022-12-07T17:52:11;3.50;99.90
52743;DHT22;55583;53.012;6.556;2022-12-07T17:54:58;3.50;99.90
52743;DHT22;55583;53.012;6.556;2022-12-07T17:57:26;3.50;99.90
52743;DHT22;55583;53.012;6.556;2022-12-07T17:59:52;3.50;99.90
52743;DHT22;55583;53.012;6.556;2022-12-07T18:02:20;3.40;99.90